createdAt,value
2018-12-09T00:07:55.013Z,88.16
2018-12-09T00:18:14.653Z,88.12
2018-12-09T00:28:34.085Z,89.00
2018-12-09T00:38:53.347Z,90.09
2018-12-09T00:49:15.268Z,90.60
2018-12-09T00:59:35.127Z,90.96
2018-12-09T01:09:54.500Z,90.30
2018-12-09T01:20:13.790Z,90.89
2018-12-09T01:30:33.396Z,91.24
2018-12-09T01:40:55.945Z,91.08
2018-12-09T01:51:15.359Z,91.25
2018-12-09T02:01:34.819Z,91.27
2018-12-09T02:11:54.446Z,91.20
2018-12-09T02:22:15.003Z,89.60
2018-12-09T02:32:34.183Z,88.53
2018-12-09T02:42:53.091Z,87.62
2018-12-09T02:53:12.994Z,87.37
2018-12-09T03:03:33.518Z,87.05
2018-12-09T03:13:52.809Z,87.92
2018-12-09T03:24:13.550Z,89.14
2018-12-09T03:34:33.675Z,91.11
2018-12-09T03:44:52.905Z,92.23
2018-12-09T03:55:12.513Z,92.08
2018-12-09T04:05:32.669Z,92.14
2018-12-09T04:15:52.184Z,92.23
2018-12-09T04:26:11.946Z,92.37
2018-12-09T04:36:31.394Z,92.48
2018-12-09T04:46:51.198Z,92.25
2018-12-09T04:57:10.871Z,92.08
2018-12-09T05:07:32.013Z,91.52
2018-12-09T05:17:52.150Z,90.59
2018-12-09T05:28:11.507Z,89.88
2018-12-09T05:38:31.899Z,90.28
2018-12-09T05:48:51.042Z,88.96
2018-12-09T05:59:10.859Z,85.24
2018-12-09T06:09:30.805Z,82.18
2018-12-09T06:19:52.488Z,83.38
2018-12-09T06:30:12.554Z,85.91
2018-12-09T06:40:32.037Z,86.99
2018-12-09T06:50:51.322Z,88.04
2018-12-09T07:01:12.279Z,89.10
2018-12-09T07:11:31.612Z,89.43
2018-12-09T07:21:52.530Z,90.73
2018-12-09T07:32:12.051Z,91.79
2018-12-09T07:42:32.223Z,92.45
2018-12-09T07:52:53.037Z,89.42
2018-12-09T08:03:12.460Z,87.83
2018-12-09T08:13:32.414Z,87.18
2018-12-09T08:23:52.773Z,86.56
2018-12-09T08:34:21.517Z,85.76
2018-12-09T08:44:41.351Z,83.18
2018-12-09T12:39:50.043Z,86.45
2018-12-09T12:50:10.510Z,83.12
2018-12-09T13:00:31.428Z,83.12
2018-12-09T13:10:51.727Z,83.40
2018-12-09T13:21:11.821Z,82.95
2018-12-09T13:31:32.661Z,81.90
2018-12-09T13:41:53.396Z,83.04
2018-12-09T13:52:13.952Z,83.91
2018-12-09T14:02:34.484Z,83.32
2018-12-09T14:12:54.465Z,80.41
2018-12-09T14:23:15.859Z,78.80
2018-12-09T14:33:35.621Z,76.78
2018-12-09T14:43:56.443Z,77.92
2018-12-09T14:54:16.715Z,74.54
2018-12-09T15:04:36.593Z,74.09
2018-12-09T15:14:57.622Z,73.87
2018-12-09T15:25:18.168Z,74.30
2018-12-09T15:35:39.496Z,74.99
2018-12-09T15:46:01.049Z,72.95
2018-12-09T15:56:21.628Z,77.33
2018-12-09T16:06:41.914Z,80.96
2018-12-09T16:17:02.256Z,82.99
2018-12-09T16:27:22.996Z,83.40
2018-12-09T16:37:43.410Z,82.51
2018-12-09T16:48:03.990Z,80.23
2018-12-09T16:58:24.681Z,78.96
2018-12-09T17:08:49.290Z,79.19
2018-12-09T17:19:09.475Z,78.78
2018-12-09T17:29:31.674Z,78.38
2018-12-09T17:39:52.437Z,78.01
2018-12-09T17:50:13.256Z,77.14
2018-12-09T18:00:34.004Z,77.14
2018-12-09T18:10:54.299Z,76.17
2018-12-09T18:21:15.099Z,75.60
2018-12-09T18:31:44.417Z,75.69
2018-12-09T18:42:05.903Z,74.83
2018-12-09T18:52:26.762Z,73.86
2018-12-09T19:02:48.378Z,74.36
2018-12-09T19:13:08.607Z,74.56
2018-12-09T19:23:30.057Z,74.65
2018-12-09T19:33:52.125Z,74.12
2018-12-09T19:44:14.497Z,74.21
2018-12-09T19:54:35.927Z,74.06
2018-12-09T20:05:01.338Z,74.11
2018-12-09T20:15:22.217Z,73.94
2018-12-09T20:25:44.186Z,73.76
2018-12-09T20:36:04.737Z,74.72
2018-12-09T20:46:25.096Z,74.84
2018-12-09T20:56:47.992Z,75.68
2018-12-09T21:07:08.635Z,75.88
2018-12-09T21:17:28.703Z,76.17
2018-12-09T21:27:49.348Z,76.14
2018-12-09T21:38:09.256Z,79.59
2018-12-09T21:48:29.370Z,84.62
2018-12-09T21:58:50.711Z,86.15
2018-12-09T22:09:10.387Z,84.51
2018-12-09T22:19:30.705Z,81.54
2018-12-09T22:29:53.472Z,79.68
2018-12-09T22:40:13.326Z,80.04
2018-12-09T22:50:33.667Z,78.75
2018-12-09T23:01:11.696Z,78.63
2018-12-09T23:11:31.805Z,79.05
2018-12-09T23:21:51.451Z,78.49
2018-12-09T23:32:13.601Z,77.23
2018-12-09T23:42:32.853Z,77.12
2018-12-09T23:52:52.777Z,77.78
